Time;durP1;ratioP1;P1;durP2;ratioP2;P2;SDS_P1;SDS_P2;PMS_P1;PMS_P2;Temp;Humidity;BMP_temperature;BMP_pressure;BME280_temperature;BME280_humidity;BME280_pressure;Samples;Min_cycle;Max_cycle;Signal;HPM_P1;HPM_P2
2021/12/06 00:01:31;;;;;;;34.03;24.25;;;6.70;97.00;;;;;;5071273;28;20488;-83
2021/12/06 00:04:08;;;;;;;34.58;23.33;;;6.70;97.20;;;;;;5070709;28;20029;-82
2021/12/06 00:06:37;;;;;;;37.25;24.60;;;6.70;97.30;;;;;;5071595;28;20529;-83
2021/12/06 00:09:06;;;;;;;33.63;24.88;;;6.80;97.10;;;;;;5071396;28;20049;-82
2021/12/06 00:11:34;;;;;;;33.35;23.92;;;6.80;97.10;;;;;;5071441;28;20532;-82
2021/12/06 00:14:01;;;;;;;36.53;24.75;;;6.80;97.00;;;;;;5071172;28;20033;-82
2021/12/06 00:16:27;;;;;;;32.45;23.13;;;6.60;97.20;;;;;;5072007;28;20375;-82
2021/12/06 00:18:53;;;;;;;33.42;24.58;;;6.60;97.40;;;;;;5074940;28;20028;-83
2021/12/06 00:21:21;;;;;;;30.60;23.45;;;6.70;97.40;;;;;;5075173;28;20070;-83
2021/12/06 00:23:46;;;;;;;32.63;24.30;;;6.80;97.40;;;;;;5075384;28;20079;-83
2021/12/06 00:26:12;;;;;;;37.00;25.33;;;6.80;97.30;;;;;;5075365;28;20032;-87
2021/12/06 00:28:40;;;;;;;35.72;24.85;;;6.80;97.20;;;;;;5075974;28;20388;-88
2021/12/06 00:31:06;;;;;;;35.70;23.60;;;6.80;97.20;;;;;;5075601;28;20519;-87
2021/12/06 00:33:32;;;;;;;35.60;24.98;;;6.80;97.20;;;;;;5075945;28;20112;-86
2021/12/06 00:36:03;;;;;;;34.20;24.42;;;6.80;97.10;;;;;;5076666;28;20021;-85
2021/12/06 00:38:31;;;;;;;38.38;26.27;;;6.90;97.20;;;;;;5097465;28;20143;-85
2021/12/06 00:40:57;;;;;;;37.70;27.05;;;6.90;97.00;;;;;;5090139;28;20039;-86
2021/12/06 00:43:23;;;;;;;39.95;26.50;;;6.60;97.40;;;;;;5075620;28;20028;-85
2021/12/06 00:45:49;;;;;;;40.88;27.98;;;6.40;97.80;;;;;;5075120;28;20427;-84
2021/12/06 00:48:15;;;;;;;42.88;28.55;;;6.30;98.00;;;;;;5074225;28;20471;-85
2021/12/06 00:50:43;;;;;;;40.63;27.65;;;6.30;98.30;;;;;;5075563;28;20043;-85
2021/12/06 00:53:09;;;;;;;42.95;28.05;;;6.30;98.30;;;;;;5075540;28;20442;-87
2021/12/06 00:55:35;;;;;;;42.75;27.60;;;6.40;98.30;;;;;;5076193;28;20020;-86
2021/12/06 00:58:02;;;;;;;41.17;26.52;;;6.50;98.20;;;;;;5074970;28;20029;-86
2021/12/06 01:00:34;;;;;;;37.30;25.38;;;6.60;98.10;;;;;;5074539;28;20590;-86
2021/12/06 01:03:00;;;;;;;47.30;29.05;;;6.70;98.00;;;;;;5073466;28;20041;-85
2021/12/06 01:05:26;;;;;;;43.15;27.63;;;6.70;97.70;;;;;;5074020;28;20036;-86
2021/12/06 01:07:56;;;;;;;40.13;27.95;;;6.60;97.90;;;;;;5074798;28;20353;-85
2021/12/06 01:10:25;;;;;;;42.95;30.08;;;6.60;98.10;;;;;;5074520;28;20083;-86
2021/12/06 01:12:51;;;;;;;39.90;27.20;;;6.60;98.10;;;;;;5071498;28;20486;-85
2021/12/06 01:15:17;;;;;;;49.75;29.67;;;6.60;98.20;;;;;;5074159;28;20036;-86
2021/12/06 01:17:44;;;;;;;48.30;30.27;;;6.60;98.10;;;;;;5074534;28;20088;-85
2021/12/06 01:20:12;;;;;;;47.33;28.80;;;6.60;98.10;;;;;;5074188;28;20468;-85
2021/12/06 01:22:46;;;;;;;45.30;28.30;;;6.50;98.10;;;;;;5074205;28;20062;-83
2021/12/06 01:25:26;;;;;;;50.80;30.35;;;6.60;98.40;;;;;;5074615;28;20044;-84
2021/12/06 01:30:32;;;;;;;52.83;32.45;;;6.60;98.00;;;;;;5082612;28;20230;-84
2021/12/06 01:33:35;;;;;;;48.00;29.25;;;6.60;98.10;;;;;;5082216;28;20032;-85
2021/12/06 01:41:35;;;;;;;57.78;33.00;;;6.70;98.00;;;;;;5086768;28;20043;-86
2021/12/06 01:44:07;;;;;;;53.95;32.67;;;6.60;97.90;;;;;;5082389;28;20543;-83
2021/12/06 01:46:35;;;;;;;53.77;31.83;;;6.50;98.20;;;;;;5074401;28;20170;-85
2021/12/06 01:49:01;;;;;;;51.80;32.78;;;6.70;98.30;;;;;;5073809;28;20654;-85
2021/12/06 01:51:27;;;;;;;58.13;33.28;;;6.70;98.10;;;;;;5074603;28;20024;-85
2021/12/06 01:53:53;;;;;;;57.08;33.92;;;6.70;97.80;;;;;;5074356;28;20024;-85
2021/12/06 01:56:18;;;;;;;62.22;34.50;;;6.50;98.10;;;;;;5072439;28;20513;-86
2021/12/06 01:58:44;;;;;;;60.33;34.20;;;6.40;98.40;;;;;;5073600;28;20043;-85
2021/12/06 02:01:10;;;;;;;62.28;35.78;;;6.50;98.40;;;;;;5075171;28;20045;-86
2021/12/06 02:03:36;;;;;;;58.53;35.17;;;6.40;98.40;;;;;;5082038;28;20057;-85
2021/12/06 02:06:02;;;;;;;65.78;36.20;;;6.50;98.50;;;;;;5083483;28;20119;-85
2021/12/06 02:08:28;;;;;;;59.28;34.47;;;6.50;98.30;;;;;;5093026;28;20099;-86
2021/12/06 02:10:59;;;;;;;60.00;34.80;;;6.50;98.40;;;;;;5082499;28;20115;-85
2021/12/06 02:13:29;;;;;;;66.15;36.42;;;6.50;98.40;;;;;;5090862;28;20031;-85
2021/12/06 02:15:55;;;;;;;62.47;35.55;;;6.40;98.40;;;;;;5084436;28;20056;-87
2021/12/06 02:21:26;;;;;;;61.40;35.20;;;6.40;98.60;;;;;;5085565;28;20032;-86
2021/12/06 02:23:53;;;;;;;61.55;37.85;;;6.50;98.50;;;;;;5086971;28;20501;-86
2021/12/06 02:26:20;;;;;;;71.40;38.05;;;6.40;98.40;;;;;;5086713;28;20475;-86
2021/12/06 02:28:46;;;;;;;61.30;36.38;;;6.40;98.60;;;;;;5088410;28;20492;-87
2021/12/06 02:31:12;;;;;;;68.82;38.17;;;6.40;98.70;;;;;;5087025;28;20024;-86
2021/12/06 02:33:37;;;;;;;73.07;37.50;;;6.40;98.60;;;;;;5090789;28;20035;-86
2021/12/06 02:36:04;;;;;;;65.85;36.50;;;6.20;98.70;;;;;;5101238;28;20036;-85
2021/12/06 02:38:30;;;;;;;69.38;38.00;;;6.30;99.00;;;;;;5080946;28;20035;-85
2021/12/06 02:40:56;;;;;;;66.30;36.90;;;6.30;98.90;;;;;;5082945;28;20040;-86
2021/12/06 02:43:21;;;;;;;65.55;36.60;;;6.30;98.70;;;;;;5087451;28;20024;-86
2021/12/06 02:45:47;;;;;;;56.22;33.25;;;6.40;98.80;;;;;;5089758;28;20038;-82
2021/12/06 02:48:14;;;;;;;60.35;34.88;;;6.50;98.70;;;;;;5087443;28;20032;-83
2021/12/06 02:50:51;;;;;;;55.80;34.55;;;6.60;98.60;;;;;;5085698;28;20028;-86
2021/12/06 02:53:19;;;;;;;60.50;34.70;;;6.80;98.40;;;;;;5077622;28;20032;-87
2021/12/06 02:55:51;;;;;;;62.38;36.35;;;6.90;98.20;;;;;;5086950;28;20108;-87
2021/12/06 02:58:55;;;;;;;66.70;36.47;;;6.90;97.90;;;;;;5082083;28;20039;-86
2021/12/06 03:01:23;;;;;;;61.08;34.38;;;7.00;97.80;;;;;;5083446;28;20293;-87
2021/12/06 03:03:49;;;;;;;58.35;34.08;;;7.00;97.90;;;;;;5084748;28;20024;-87
2021/12/06 03:06:14;;;;;;;64.15;35.45;;;7.10;97.60;;;;;;5083343;28;20123;-85
2021/12/06 03:08:50;;;;;;;56.85;34.42;;;7.10;97.40;;;;;;5086167;28;20020;-87
2021/12/06 03:11:20;;;;;;;55.70;32.85;;;7.00;97.30;;;;;;5084055;28;20387;-88
2021/12/06 03:13:47;;;;;;;56.13;33.28;;;7.10;97.40;;;;;;5083221;28;20112;-90
2021/12/06 03:16:13;;;;;;;57.75;34.63;;;7.20;97.30;;;;;;5082090;28;20059;-91
2021/12/06 03:18:43;;;;;;;58.58;34.75;;;7.20;97.20;;;;;;5085133;28;20048;-90
2021/12/06 03:21:09;;;;;;;59.03;33.60;;;7.20;97.10;;;;;;5086408;28;20036;-89
2021/12/06 03:23:34;;;;;;;55.13;34.53;;;7.20;97.10;;;;;;5082377;28;20069;-89
2021/12/06 03:26:00;;;;;;;61.50;35.03;;;7.30;97.00;;;;;;5082038;28;20044;-92
2021/12/06 03:28:26;;;;;;;58.50;33.63;;;7.20;96.80;;;;;;5087650;28;20028;-93
2021/12/06 03:30:52;;;;;;;58.38;35.03;;;7.20;96.90;;;;;;5081548;28;20032;-90
2021/12/06 03:33:17;;;;;;;59.40;35.13;;;7.30;96.90;;;;;;5096283;28;20021;-91
2021/12/06 03:35:43;;;;;;;59.55;34.80;;;7.30;96.70;;;;;;5091320;28;20043;-91
2021/12/06 03:38:09;;;;;;;56.90;33.03;;;7.40;96.80;;;;;;5078521;28;20028;-88
2021/12/06 03:40:34;;;;;;;60.38;33.92;;;7.40;96.80;;;;;;5083387;28;20042;-91
2021/12/06 03:43:00;;;;;;;54.00;32.65;;;7.40;96.70;;;;;;5089181;28;20036;-90
2021/12/06 03:45:26;;;;;;;54.88;33.05;;;7.50;96.70;;;;;;5089729;28;20546;-89
2021/12/06 03:47:52;;;;;;;55.47;31.50;;;7.50;96.60;;;;;;5086186;28;20065;-89
2021/12/06 03:50:17;;;;;;;53.90;32.80;;;7.60;96.50;;;;;;5088245;28;20034;-89
2021/12/06 03:52:43;;;;;;;60.08;33.45;;;7.60;96.40;;;;;;5081605;28;20043;-89
2021/12/06 03:55:10;;;;;;;65.90;36.30;;;7.70;96.30;;;;;;5088916;28;20554;-89
2021/12/06 03:57:36;;;;;;;70.13;38.17;;;7.40;95.80;;;;;;5079877;28;20032;-89
2021/12/06 04:00:05;;;;;;;64.38;36.50;;;7.00;96.40;;;;;;5087693;28;20036;-89
2021/12/06 04:02:31;;;;;;;69.10;37.55;;;6.70;97.00;;;;;;5090115;28;20044;-86
2021/12/06 04:04:57;;;;;;;66.57;35.88;;;6.70;97.30;;;;;;5076970;28;20051;-88
2021/12/06 04:07:23;;;;;;;61.45;35.60;;;6.80;97.40;;;;;;5075907;28;20582;-89
2021/12/06 04:09:49;;;;;;;61.65;35.08;;;6.80;97.30;;;;;;5082902;28;20021;-88
2021/12/06 04:12:15;;;;;;;62.78;34.63;;;6.90;97.20;;;;;;5088122;28;20020;-89
2021/12/06 04:14:42;;;;;;;62.42;35.70;;;7.10;97.00;;;;;;5079894;28;20028;-89
2021/12/06 04:17:08;;;;;;;59.83;33.60;;;7.20;96.90;;;;;;5081094;28;20035;-89
2021/12/06 04:19:34;;;;;;;63.47;33.88;;;7.20;96.80;;;;;;5087456;28;20028;-89
2021/12/06 04:21:59;;;;;;;61.72;35.85;;;7.30;96.70;;;;;;5088673;28;20036;-88
2021/12/06 04:24:25;;;;;;;70.53;37.50;;;7.30;96.60;;;;;;5083718;28;20475;-89
2021/12/06 04:26:51;;;;;;;68.35;38.97;;;7.30;96.40;;;;;;5084679;28;20020;-89
2021/12/06 04:29:18;;;;;;;69.93;37.45;;;7.20;96.40;;;;;;5083785;28;20031;-89
2021/12/06 04:31:47;;;;;;;66.95;37.72;;;7.10;96.40;;;;;;5100811;28;20022;-88
2021/12/06 04:34:13;;;;;;;65.65;37.78;;;7.00;96.70;;;;;;5101591;28;20055;-88
2021/12/06 04:36:41;;;;;;;67.22;37.97;;;6.90;96.70;;;;;;5084486;28;20488;-86
2021/12/06 04:39:09;;;;;;;71.10;38.67;;;6.90;96.90;;;;;;5081609;28;20039;-86
2021/12/06 04:41:36;;;;;;;67.22;35.67;;;6.80;97.00;;;;;;5078612;28;20051;-87
2021/12/06 04:44:03;;;;;;;69.05;36.92;;;6.90;97.00;;;;;;5073483;28;20078;-85
2021/12/06 04:46:28;;;;;;;68.20;36.95;;;7.00;97.00;;;;;;5075382;28;20032;-86
2021/12/06 04:48:54;;;;;;;68.78;37.25;;;7.10;96.90;;;;;;5078180;28;20084;-87
2021/12/06 04:51:20;;;;;;;66.30;37.13;;;7.10;96.70;;;;;;5089793;28;20032;-88
2021/12/06 04:53:47;;;;;;;69.47;36.92;;;7.10;96.60;;;;;;5079098;28;20044;-87
2021/12/06 04:56:16;;;;;;;67.32;37.00;;;7.10;96.60;;;;;;5080105;28;20016;-87
2021/12/06 04:58:53;;;;;;;68.50;36.42;;;7.10;96.60;;;;;;5082696;28;20020;-87
2021/12/06 05:01:24;;;;;;;65.97;36.75;;;7.00;96.60;;;;;;5081304;28;20174;-88
2021/12/06 05:03:51;;;;;;;63.03;34.15;;;6.80;96.80;;;;;;5082628;28;20479;-87
2021/12/06 05:06:27;;;;;;;62.60;34.72;;;6.90;96.90;;;;;;5094469;28;20039;-86
2021/12/06 05:08:56;;;;;;;61.70;34.33;;;6.90;96.80;;;;;;5087132;28;20025;-86
2021/12/06 05:11:25;;;;;;;66.32;36.40;;;7.10;96.70;;;;;;5082175;28;20086;-86
2021/12/06 05:13:54;;;;;;;65.05;35.38;;;7.10;96.60;;;;;;5087293;28;20085;-86
2021/12/06 05:16:21;;;;;;;69.20;36.15;;;7.10;96.50;;;;;;5079259;28;20032;-85
2021/12/06 05:18:47;;;;;;;64.43;34.30;;;7.10;96.30;;;;;;5083695;28;20025;-83
2021/12/06 05:21:13;;;;;;;69.00;37.63;;;7.10;96.40;;;;;;5093522;28;20058;-87
2021/12/06 05:23:39;;;;;;;61.05;35.15;;;7.10;96.40;;;;;;5077266;28;20033;-83
2021/12/06 05:26:05;;;;;;;62.95;36.55;;;7.10;96.40;;;;;;5092551;28;20089;-83
2021/12/06 05:28:37;;;;;;;61.15;34.95;;;7.10;96.30;;;;;;5090960;28;20032;-85
2021/12/06 05:31:03;;;;;;;62.53;35.13;;;7.10;96.30;;;;;;5106481;28;20028;-79
2021/12/06 05:33:31;;;;;;;61.60;34.47;;;7.10;96.00;;;;;;5091011;28;20030;-79
2021/12/06 05:36:02;;;;;;;64.63;36.03;;;7.10;96.10;;;;;;5083987;28;20382;-78
2021/12/06 05:38:29;;;;;;;61.88;34.20;;;7.10;96.10;;;;;;5088441;28;20126;-78
2021/12/06 05:40:56;;;;;;;61.08;33.85;;;7.20;96.10;;;;;;5078720;28;20123;-79
2021/12/06 05:43:24;;;;;;;62.00;33.65;;;7.20;96.00;;;;;;5083480;28;20025;-84
2021/12/06 05:45:50;;;;;;;64.68;34.67;;;7.20;96.00;;;;;;5092205;28;20551;-81
2021/12/06 05:48:17;;;;;;;56.88;33.55;;;7.20;95.90;;;;;;5079286;28;20067;-80
2021/12/06 05:50:46;;;;;;;57.33;33.40;;;7.20;95.90;;;;;;5084252;28;20070;-81
2021/12/06 05:53:13;;;;;;;62.38;34.83;;;7.20;95.90;;;;;;5086111;28;20077;-81
2021/12/06 05:55:39;;;;;;;60.65;34.65;;;7.20;95.80;;;;;;5085549;28;20089;-82
2021/12/06 05:58:06;;;;;;;63.20;35.83;;;7.10;95.70;;;;;;5085462;28;20422;-81
2021/12/06 06:00:32;;;;;;;62.15;35.67;;;7.10;95.70;;;;;;5087087;28;20036;-81
2021/12/06 06:03:02;;;;;;;68.15;36.38;;;7.10;96.00;;;;;;5082183;28;20445;-79
2021/12/06 06:05:28;;;;;;;69.45;36.60;;;7.00;95.60;;;;;;5083861;28;20028;-82
2021/12/06 06:07:54;;;;;;;60.67;35.15;;;7.00;95.70;;;;;;5077225;28;20024;-81
2021/12/06 06:10:20;;;;;;;64.72;34.67;;;6.90;95.90;;;;;;5086032;28;20034;-80
2021/12/06 06:12:45;;;;;;;74.47;38.40;;;6.90;96.00;;;;;;5080116;28;20028;-81
2021/12/06 06:15:12;;;;;;;70.00;37.00;;;6.90;96.00;;;;;;5085368;28;20029;-80
2021/12/06 06:17:42;;;;;;;59.80;32.55;;;6.80;96.20;;;;;;5077776;28;20024;-78
2021/12/06 06:20:27;;;;;;;64.20;36.13;;;6.80;96.50;;;;;;5078206;28;20032;-80
2021/12/06 06:22:53;;;;;;;59.45;34.88;;;6.90;96.50;;;;;;5081487;28;20032;-78
2021/12/06 06:25:20;;;;;;;69.30;36.67;;;6.90;96.90;;;;;;5083621;28;20043;-79
2021/12/06 06:27:46;;;;;;;65.57;36.33;;;6.90;96.70;;;;;;5080066;28;20042;-79
2021/12/06 06:30:14;;;;;;;70.10;35.70;;;6.90;96.50;;;;;;5099970;28;20047;-79
2021/12/06 06:32:41;;;;;;;61.88;34.40;;;6.80;96.50;;;;;;5090152;28;20110;-79
2021/12/06 06:35:08;;;;;;;66.68;34.80;;;6.80;96.70;;;;;;5085158;28;20032;-79
2021/12/06 06:37:34;;;;;;;62.45;33.20;;;6.80;96.90;;;;;;5089142;28;20550;-78
2021/12/06 06:39:59;;;;;;;65.30;34.05;;;6.90;97.10;;;;;;5085375;28;20029;-78
2021/12/06 06:42:27;;;;;;;55.60;33.97;;;7.00;96.60;;;;;;5083647;28;20516;-78
2021/12/06 06:44:54;;;;;;;66.45;35.30;;;7.00;96.50;;;;;;5074442;28;20028;-79
2021/12/06 06:47:20;;;;;;;66.88;35.00;;;6.90;96.40;;;;;;5074526;28;20025;-77
2021/12/06 06:49:47;;;;;;;60.22;33.47;;;6.90;96.50;;;;;;5081432;28;20530;-78
2021/12/06 06:52:14;;;;;;;56.38;30.30;;;6.80;96.20;;;;;;5083544;28;20040;-77
2021/12/06 06:54:41;;;;;;;57.63;31.92;;;6.80;96.60;;;;;;5090446;28;20035;-80
2021/12/06 06:57:07;;;;;;;54.28;30.77;;;6.80;96.30;;;;;;5088511;28;20085;-88
2021/12/06 06:59:32;;;;;;;58.80;32.80;;;6.80;96.40;;;;;;5079774;28;20107;-78
2021/12/06 07:01:59;;;;;;;57.33;31.80;;;6.90;96.30;;;;;;5084765;28;20059;-77
2021/12/06 07:04:25;;;;;;;57.50;31.77;;;6.90;96.40;;;;;;5080072;28;20025;-77
2021/12/06 07:06:51;;;;;;;57.25;31.45;;;6.90;96.30;;;;;;5084912;28;20490;-76
2021/12/06 07:09:17;;;;;;;57.17;31.67;;;6.70;96.00;;;;;;5084239;28;20024;-76
2021/12/06 07:11:45;;;;;;;60.22;31.35;;;6.60;96.20;;;;;;5092540;28;20024;-78
2021/12/06 07:14:15;;;;;;;66.78;31.27;;;6.60;96.80;;;;;;5086554;28;20040;-85
2021/12/06 07:16:42;;;;;;;60.85;32.78;;;6.60;96.60;;;;;;5090952;28;20035;-83
2021/12/06 07:19:07;;;;;;;57.10;31.75;;;6.50;96.40;;;;;;5087616;28;20111;-84
2021/12/06 07:21:34;;;;;;;55.78;31.10;;;6.40;96.70;;;;;;5078487;28;20147;-83
2021/12/06 07:24:01;;;;;;;55.88;31.52;;;6.50;96.80;;;;;;5092770;28;20046;-89
2021/12/06 07:26:27;;;;;;;55.75;31.48;;;6.50;96.70;;;;;;5102435;28;20447;-88
2021/12/06 07:28:55;;;;;;;51.70;30.17;;;6.50;96.80;;;;;;5096167;28;20039;-84
2021/12/06 07:31:22;;;;;;;51.80;31.08;;;6.70;96.90;;;;;;5088773;28;20025;-83
2021/12/06 07:33:48;;;;;;;52.25;30.52;;;6.70;96.80;;;;;;5081179;28;20463;-86
2021/12/06 07:36:14;;;;;;;51.05;30.45;;;6.80;96.80;;;;;;5075463;28;20110;-82
2021/12/06 07:38:41;;;;;;;51.05;30.08;;;6.80;96.70;;;;;;5084745;28;20115;-78
2021/12/06 07:41:09;;;;;;;51.50;29.73;;;6.80;96.60;;;;;;5078747;28;20093;-81
2021/12/06 07:43:36;;;;;;;40.17;26.23;;;6.80;96.50;;;;;;5081887;28;20470;-81
2021/12/06 07:46:02;;;;;;;49.05;28.40;;;6.80;96.50;;;;;;5083329;28;20054;-85
2021/12/06 07:48:29;;;;;;;50.10;28.38;;;6.90;96.50;;;;;;5076367;28;20025;-82
2021/12/06 07:50:55;;;;;;;42.42;26.45;;;6.90;96.10;;;;;;5080926;28;20032;-84
2021/12/06 07:53:21;;;;;;;46.80;26.75;;;6.80;96.10;;;;;;5084060;28;20032;-83
2021/12/06 07:55:47;;;;;;;43.78;26.33;;;6.80;96.20;;;;;;5076855;28;20568;-86
2021/12/06 07:58:12;;;;;;;43.13;26.98;;;6.90;96.30;;;;;;5079424;28;20050;-86
2021/12/06 08:00:44;;;;;;;48.95;27.27;;;6.90;96.20;;;;;;5086442;28;20040;-88
2021/12/06 08:03:10;;;;;;;46.58;27.15;;;6.80;96.00;;;;;;5082055;28;20483;-85
2021/12/06 08:05:38;;;;;;;48.40;28.05;;;6.80;96.00;;;;;;5078937;28;20578;-85
2021/12/06 08:08:15;;;;;;;44.80;27.60;;;6.80;96.00;;;;;;5078777;28;20039;-84
2021/12/06 08:10:45;;;;;;;49.17;27.67;;;6.70;96.10;;;;;;5080918;28;20032;-84
2021/12/06 08:13:16;;;;;;;50.30;29.10;;;6.70;96.20;;;;;;5083707;28;20028;-84
2021/12/06 08:15:43;;;;;;;49.17;29.38;;;6.70;96.30;;;;;;5079770;28;20372;-83
2021/12/06 08:18:10;;;;;;;53.00;29.45;;;6.80;96.30;;;;;;5084949;28;20376;-83
2021/12/06 08:20:36;;;;;;;50.20;28.50;;;6.80;96.10;;;;;;5072476;28;20037;-82
2021/12/06 08:23:02;;;;;;;48.88;29.20;;;6.80;96.10;;;;;;5091816;28;20383;-82
2021/12/06 08:25:28;;;;;;;46.85;28.50;;;6.80;96.10;;;;;;5107530;28;20008;-82
2021/12/06 08:27:54;;;;;;;46.65;26.27;;;6.90;96.10;;;;;;5096270;28;20087;-81
2021/12/06 08:30:22;;;;;;;43.60;26.50;;;6.80;96.00;;;;;;5073182;28;20831;-80
2021/12/06 08:32:50;;;;;;;48.90;27.73;;;6.80;95.90;;;;;;5079606;28;20035;-82
2021/12/06 08:35:16;;;;;;;47.25;25.73;;;6.80;95.90;;;;;;5081166;28;20044;-82
2021/12/06 08:37:43;;;;;;;40.63;22.92;;;6.80;96.00;;;;;;5084002;28;20025;-83
2021/12/06 08:40:10;;;;;;;43.20;25.52;;;6.70;95.70;;;;;;5092205;28;20051;-82
2021/12/06 08:42:38;;;;;;;37.22;22.42;;;6.60;95.70;;;;;;5088153;28;20020;-82
2021/12/06 08:45:06;;;;;;;40.25;22.95;;;6.60;95.70;;;;;;5079685;28;20025;-82
2021/12/06 08:47:31;;;;;;;45.70;26.13;;;6.60;95.80;;;;;;5077565;28;20104;-82
2021/12/06 08:49:57;;;;;;;41.08;24.15;;;6.60;95.90;;;;;;5080571;28;20115;-82
2021/12/06 08:52:23;;;;;;;39.28;23.90;;;6.60;95.90;;;;;;5089496;28;20055;-85
2021/12/06 08:54:49;;;;;;;37.53;22.08;;;6.50;95.90;;;;;;5087790;28;20459;-80
2021/12/06 08:57:15;;;;;;;34.95;22.02;;;6.60;95.90;;;;;;5076099;28;20017;-82
2021/12/06 08:59:40;;;;;;;37.60;22.65;;;6.60;95.90;;;;;;5086858;28;20027;-81
2021/12/06 09:02:06;;;;;;;42.00;24.10;;;6.60;95.70;;;;;;5084110;28;20434;-78
2021/12/06 09:04:37;;;;;;;37.22;22.65;;;6.60;95.70;;;;;;5079976;28;20036;-85
2021/12/06 09:07:10;;;;;;;39.58;23.08;;;6.60;95.90;;;;;;5082640;28;20024;-85
2021/12/06 09:09:36;;;;;;;37.83;22.83;;;6.60;95.90;;;;;;5082687;28;20028;-86
2021/12/06 09:12:02;;;;;;;34.88;22.33;;;6.70;95.90;;;;;;5085681;28;20120;-87
2021/12/06 09:14:28;;;;;;;36.35;22.30;;;6.80;96.00;;;;;;5082249;28;20023;-88
2021/12/06 09:16:55;;;;;;;36.53;22.35;;;6.80;95.70;;;;;;5083378;28;20509;-87
2021/12/06 09:19:21;;;;;;;33.90;21.92;;;6.80;95.50;;;;;;5090420;28;20028;-80
2021/12/06 09:21:47;;;;;;;35.15;21.40;;;6.70;95.40;;;;;;5091288;28;20024;-85
2021/12/06 09:24:19;;;;;;;35.25;21.30;;;6.70;95.50;;;;;;5109534;28;20088;-85
2021/12/06 09:26:47;;;;;;;35.22;20.52;;;6.70;95.60;;;;;;5095937;28;20039;-85
2021/12/06 09:29:12;;;;;;;33.38;20.63;;;6.70;95.40;;;;;;5090551;28;20031;-86
2021/12/06 09:31:38;;;;;;;33.63;22.02;;;6.80;95.50;;;;;;5090025;28;20028;-85
2021/12/06 09:34:04;;;;;;;31.95;21.35;;;6.70;95.40;;;;;;5089737;28;20042;-85
2021/12/06 09:36:31;;;;;;;30.42;19.95;;;6.70;95.30;;;;;;5085094;28;20097;-85
2021/12/06 09:38:57;;;;;;;33.15;20.65;;;6.70;95.50;;;;;;5087593;28;20069;-86
2021/12/06 09:41:26;;;;;;;33.92;20.70;;;6.80;95.60;;;;;;5090328;28;20036;-85
2021/12/06 09:43:56;;;;;;;34.50;21.55;;;6.80;95.50;;;;;;5076235;28;20029;-81
2021/12/06 09:46:22;;;;;;;35.15;23.08;;;6.90;95.30;;;;;;5082474;28;20036;-84
2021/12/06 09:48:48;;;;;;;34.10;20.20;;;6.90;95.30;;;;;;5084679;28;20027;-81
2021/12/06 09:51:21;;;;;;;33.35;21.05;;;6.80;95.30;;;;;;5088127;28;20125;-84
2021/12/06 09:53:48;;;;;;;39.42;23.08;;;6.80;95.50;;;;;;5076559;28;20024;-81
2021/12/06 09:56:23;;;;;;;38.67;22.85;;;6.80;95.40;;;;;;5082704;28;20107;-79
2021/12/06 09:58:50;;;;;;;33.65;20.75;;;6.80;95.30;;;;;;5083125;28;20070;-80
2021/12/06 10:01:25;;;;;;;34.50;22.35;;;6.80;95.30;;;;;;5061533;28;20044;-83
2021/12/06 10:03:54;;;;;;;37.30;22.88;;;6.70;95.30;;;;;;5075625;28;20052;-82
2021/12/06 10:06:20;;;;;;;38.40;22.30;;;6.80;95.50;;;;;;5054785;28;20029;-80
2021/12/06 10:08:49;;;;;;;32.67;20.80;;;6.80;95.40;;;;;;5055237;28;20075;-80
2021/12/06 10:11:17;;;;;;;37.65;24.25;;;6.90;95.50;;;;;;5055047;28;20075;-80
2021/12/06 10:13:44;;;;;;;36.70;22.13;;;6.90;95.40;;;;;;5055148;28;20024;-83
2021/12/06 10:16:11;;;;;;;38.53;23.33;;;6.90;95.50;;;;;;5055374;28;20060;-83
2021/12/06 10:18:39;;;;;;;34.97;22.33;;;6.90;95.50;;;;;;5056478;28;20025;-80
2021/12/06 10:21:06;;;;;;;36.28;22.95;;;7.00;95.50;;;;;;5069261;28;20044;-83
2021/12/06 10:23:36;;;;;;;36.50;22.38;;;7.00;95.50;;;;;;5055194;28;20056;-84
2021/12/06 10:26:04;;;;;;;33.50;20.40;;;7.10;95.40;;;;;;5055680;28;20113;-83
2021/12/06 10:28:30;;;;;;;37.88;22.67;;;7.10;95.40;;;;;;5054837;28;20052;-82
2021/12/06 10:31:01;;;;;;;35.42;21.77;;;7.20;95.50;;;;;;5054688;28;20075;-81
2021/12/06 10:33:30;;;;;;;44.22;24.35;;;7.20;95.50;;;;;;5054830;28;20033;-82
2021/12/06 10:36:01;;;;;;;40.67;24.05;;;7.10;95.30;;;;;;5054544;28;20017;-82
2021/12/06 10:38:32;;;;;;;35.20;21.65;;;7.10;95.40;;;;;;5055390;28;20075;-82
2021/12/06 10:40:59;;;;;;;49.60;21.55;;;7.00;95.20;;;;;;5054684;28;20104;-83
2021/12/06 10:43:26;;;;;;;40.00;23.17;;;7.00;95.10;;;;;;5054595;28;20022;-85
2021/12/06 10:45:57;;;;;;;36.58;22.98;;;7.00;95.10;;;;;;5054815;28;20498;-83
2021/12/06 10:48:26;;;;;;;35.92;21.00;;;6.90;95.20;;;;;;5053044;28;20024;-83
2021/12/06 10:50:51;;;;;;;35.00;21.20;;;7.00;95.40;;;;;;5054796;28;20094;-85
2021/12/06 10:53:21;;;;;;;37.97;23.95;;;6.90;95.50;;;;;;5054907;28;20483;-82
2021/12/06 10:55:51;;;;;;;39.65;23.65;;;6.90;95.50;;;;;;5054313;28;20075;-82
2021/12/06 10:58:25;;;;;;;33.67;22.00;;;6.90;95.60;;;;;;5054321;28;20053;-80
2021/12/06 11:00:53;;;;;;;41.50;24.40;;;7.00;95.70;;;;;;5052667;28;20035;-86
2021/12/06 11:03:23;;;;;;;39.72;24.35;;;7.00;95.60;;;;;;5071320;28;20067;-81
2021/12/06 11:05:54;;;;;;;42.45;25.17;;;6.90;95.80;;;;;;5073961;28;20427;-81
2021/12/06 11:08:21;;;;;;;40.72;24.13;;;7.00;95.80;;;;;;5060151;28;20043;-80
2021/12/06 11:10:51;;;;;;;40.20;24.98;;;7.00;95.80;;;;;;5062842;28;20048;-81
2021/12/06 11:13:24;;;;;;;36.70;21.92;;;7.00;95.80;;;;;;5059412;28;20027;-85
2021/12/06 11:16:01;;;;;;;44.03;25.48;;;7.10;95.80;;;;;;5065472;28;20029;-82
2021/12/06 11:18:47;;;;;;;36.30;24.08;;;7.20;95.70;;;;;;5072946;28;20059;-86
2021/12/06 11:21:39;;;;;;;37.08;24.45;;;7.20;95.50;;;;;;5061026;28;20429;-85
2021/12/06 11:24:26;;;;;;;37.78;24.38;;;7.10;95.40;;;;;;5062228;28;20538;-89
2021/12/06 11:27:03;;;;;;;36.47;24.63;;;7.10;95.40;;;;;;5053735;28;20033;-88
2021/12/06 11:29:34;;;;;;;40.78;24.77;;;7.00;95.40;;;;;;5061996;28;20025;-89
2021/12/06 11:32:11;;;;;;;38.97;26.00;;;7.10;95.50;;;;;;5062610;28;20361;-79
2021/12/06 11:34:39;;;;;;;42.75;25.40;;;7.00;95.40;;;;;;5056998;28;20033;-77
2021/12/06 11:37:39;;;;;;;44.50;26.23;;;6.90;95.50;;;;;;5055882;28;20094;-77
2021/12/06 11:40:21;;;;;;;44.92;25.40;;;6.90;95.70;;;;;;5045947;28;20135;-79
2021/12/06 11:42:49;;;;;;;44.85;25.05;;;6.90;95.70;;;;;;5069170;28;20391;-81
2021/12/06 11:45:28;;;;;;;40.33;24.50;;;6.90;95.70;;;;;;5065355;28;20083;-81
2021/12/06 11:48:24;;;;;;;44.25;25.83;;;6.90;95.60;;;;;;5064987;28;20048;-83
2021/12/06 11:51:12;;;;;;;45.50;24.98;;;6.90;95.60;;;;;;5047908;28;20037;-83
2021/12/06 11:53:50;;;;;;;47.53;26.17;;;6.90;95.50;;;;;;5064613;28;20025;-81
2021/12/06 11:56:18;;;;;;;41.17;23.45;;;6.90;95.60;;;;;;5064500;28;20021;-83
2021/12/06 11:58:51;;;;;;;46.47;24.90;;;6.80;95.60;;;;;;5061829;28;20021;-85
2021/12/06 12:01:30;;;;;;;43.42;24.70;;;6.80;95.40;;;;;;5060873;28;20045;-85
2021/12/06 12:04:03;;;;;;;42.35;23.38;;;6.70;95.70;;;;;;5069427;28;20028;-82
2021/12/06 12:06:33;;;;;;;42.88;23.00;;;6.70;95.80;;;;;;5070771;28;20380;-82
2021/12/06 12:09:04;;;;;;;45.25;23.58;;;6.60;95.90;;;;;;5053966;28;20029;-84
2021/12/06 12:11:30;;;;;;;47.33;24.33;;;6.70;95.90;;;;;;5054427;28;20045;-81
2021/12/06 12:13:57;;;;;;;43.47;23.45;;;6.70;95.90;;;;;;5061935;28;20483;-80
2021/12/06 12:16:24;;;;;;;46.17;24.88;;;6.60;96.00;;;;;;5068109;28;20025;-84
2021/12/06 12:18:50;;;;;;;42.67;23.92;;;6.60;96.00;;;;;;5061920;28;20023;-83
2021/12/06 12:21:16;;;;;;;43.35;22.55;;;6.60;96.20;;;;;;5077285;28;20037;-81
2021/12/06 12:23:42;;;;;;;37.55;19.65;;;6.60;96.30;;;;;;5077478;28;20021;-81
2021/12/06 12:26:15;;;;;;;31.65;18.65;;;6.60;96.20;;;;;;5076869;28;20032;-80
2021/12/06 12:29:11;;;;;;;33.13;18.65;;;6.60;95.90;;;;;;5076396;28;20021;-79
2021/12/06 12:31:37;;;;;;;35.60;18.63;;;6.40;95.80;;;;;;5076641;28;20356;-78
2021/12/06 12:34:03;;;;;;;30.02;17.98;;;6.40;95.80;;;;;;5076742;28;20017;-77
2021/12/06 12:36:34;;;;;;;27.80;17.02;;;6.30;95.90;;;;;;5076644;28;20031;-77
2021/12/06 12:38:59;;;;;;;27.17;16.50;;;6.20;96.00;;;;;;5076960;28;20027;-81
2021/12/06 12:41:33;;;;;;;26.63;16.73;;;6.30;95.80;;;;;;5076695;28;20410;-83
2021/12/06 12:44:07;;;;;;;;;;;6.20;95.80;;;;;;5076993;28;20054;-79
2021/12/06 12:46:40;;;;;;;29.27;16.67;;;6.10;95.90;;;;;;5076328;28;19962;-79
2021/12/06 12:49:30;;;;;;;31.02;17.75;;;6.10;96.00;;;;;;5066300;28;20029;-81
2021/12/06 12:51:57;;;;;;;30.35;18.25;;;6.10;95.90;;;;;;5060593;28;20031;-84
2021/12/06 12:54:25;;;;;;;28.75;17.75;;;6.10;96.10;;;;;;5064623;28;20488;-78
2021/12/06 12:56:51;;;;;;;29.80;17.85;;;6.10;96.10;;;;;;5071667;28;20030;-77